createdAt,value
2022-09-20T00:01:08.415Z,99999.67
2022-09-20T00:03:49.665Z,100004.13
2022-09-20T00:06:38.511Z,100009.45
2022-09-20T00:09:10.056Z,100016.39
2022-09-20T00:11:41.497Z,100015.05
2022-09-20T00:14:23.182Z,100017.27
2022-09-20T00:16:52.132Z,100017.45
2022-09-20T00:19:31.330Z,100016.96
2022-09-20T00:22:11.073Z,100015.55
2022-09-20T00:24:59.008Z,100019.69
2022-09-20T00:27:49.388Z,100020.61
2022-09-20T00:30:18.267Z,100021.54
2022-09-20T00:33:06.191Z,100017.95
2022-09-20T00:35:55.047Z,100025.37
2022-09-20T00:38:44.012Z,100022.97
2022-09-20T00:41:33.895Z,100023.23
2022-09-20T00:44:42.528Z,100024.64
2022-09-20T00:47:39.675Z,100027.57
2022-09-20T00:50:32.627Z,100025.80
2022-09-20T00:53:25.898Z,100025.63
2022-09-20T00:56:19.920Z,100026.88
2022-09-20T00:59:15.429Z,100027.65
2022-09-20T01:02:02.457Z,100026.27
2022-09-20T01:04:51.623Z,100023.81
2022-09-20T01:07:43.707Z,100027.16
2022-09-20T01:10:22.578Z,100025.69
2022-09-20T01:12:54.905Z,100026.21
2022-09-20T01:15:46.878Z,100024.44
2022-09-20T01:18:38.916Z,100024.81
2022-09-20T01:21:29.172Z,100023.42
2022-09-20T01:24:23.073Z,100023.46
2022-09-20T01:27:22.202Z,100026.70
2022-09-20T01:30:07.619Z,100029.13
2022-09-20T01:33:05.639Z,100034.15
2022-09-20T01:35:59.532Z,100032.69
2022-09-20T01:39:05.696Z,100032.56
2022-09-20T01:41:55.557Z,100034.24
2022-09-20T01:44:56.529Z,100037.80
2022-09-20T01:47:59.207Z,100037.32
2022-09-20T01:51:09.940Z,100034.55
2022-09-20T01:54:29.304Z,100041.23
2022-09-20T01:57:35.266Z,100044.91
2022-09-20T02:00:19.770Z,100046.65
2022-09-20T02:03:23.667Z,100044.91
2022-09-20T02:06:22.845Z,100044.70
2022-09-20T02:09:33.429Z,100042.27
2022-09-20T02:12:41.261Z,100047.41
2022-09-20T02:15:40.889Z,100052.91
2022-09-20T02:18:42.142Z,100055.64
2022-09-20T02:21:38.553Z,100055.48
2022-09-20T02:24:20.006Z,100054.89
2022-09-20T02:27:23.792Z,100051.69
2022-09-20T02:30:22.374Z,100049.75
2022-09-20T02:33:39.909Z,100051.23
2022-09-20T02:36:30.757Z,100058.37
2022-09-20T02:39:26.994Z,100052.94
2022-09-20T02:42:17.208Z,100052.51
2022-09-20T02:45:04.462Z,100055.00
2022-09-20T02:47:44.433Z,100054.86
2022-09-20T02:50:42.502Z,100057.63
2022-09-20T02:53:33.051Z,100055.52
2022-09-20T02:56:29.746Z,100055.75
2022-09-20T02:59:29.380Z,100061.71
2022-09-20T03:02:26.344Z,100063.45
2022-09-20T03:05:23.094Z,100064.46
2022-09-20T03:08:23.438Z,100070.35
2022-09-20T03:11:22.266Z,100069.92
2022-09-20T03:14:22.489Z,100068.36
2022-09-20T03:17:23.302Z,100070.00
2022-09-20T03:20:30.993Z,100071.41
2022-09-20T03:23:38.127Z,100072.64
2022-09-20T03:26:43.207Z,100068.23
2022-09-20T03:29:48.579Z,100066.58
2022-09-20T03:32:52.439Z,100069.46
2022-09-20T03:35:58.916Z,100073.05
2022-09-20T03:39:01.925Z,100079.13
2022-09-20T03:42:00.183Z,100078.52
2022-09-20T03:45:30.770Z,100078.05
2022-09-20T03:48:32.345Z,100075.61
2022-09-20T03:51:33.874Z,100080.34
2022-09-20T03:54:34.287Z,100084.20
2022-09-20T03:57:38.454Z,100081.02
2022-09-20T04:00:41.524Z,100083.59
2022-09-20T04:03:45.458Z,100085.70
2022-09-20T04:06:58.694Z,100086.41
2022-09-20T04:10:07.313Z,100090.34
2022-09-20T04:13:00.268Z,100091.12
2022-09-20T04:16:04.012Z,100089.21
2022-09-20T04:18:58.327Z,100090.02
2022-09-20T04:21:53.285Z,100090.34
2022-09-20T04:24:35.637Z,100094.70
2022-09-20T04:27:15.478Z,100099.65
2022-09-20T04:30:10.885Z,100102.33
2022-09-20T04:33:08.753Z,100103.09
2022-09-20T04:36:28.129Z,100108.61
2022-09-20T04:39:25.751Z,100114.61
2022-09-20T04:42:51.299Z,100115.14
2022-09-20T04:46:03.156Z,100120.77
2022-09-20T04:49:18.591Z,100122.80
2022-09-20T04:52:45.553Z,100126.77
2022-09-20T04:55:48.499Z,100126.88
2022-09-20T04:58:44.217Z,100129.91
2022-09-20T05:02:08.480Z,100134.19
2022-09-20T05:05:16.411Z,100141.46
2022-09-20T05:08:34.255Z,100146.10
2022-09-20T05:11:48.515Z,100150.77
2022-09-20T05:15:11.566Z,100157.23
2022-09-20T05:18:06.293Z,100163.47
2022-09-20T05:20:58.949Z,100166.86
2022-09-20T05:24:09.559Z,100171.17
2022-09-20T05:27:06.534Z,100172.63
2022-09-20T05:29:51.345Z,100175.80
2022-09-20T05:32:35.488Z,100173.06
2022-09-20T05:35:15.218Z,100173.91
2022-09-20T05:37:52.076Z,100177.44
2022-09-20T05:41:03.178Z,100182.30
2022-09-20T05:43:38.114Z,100186.70
2022-09-20T05:46:33.748Z,100191.45
2022-09-20T05:49:12.586Z,100190.60
2022-09-20T05:52:09.784Z,100188.73
2022-09-20T05:55:20.255Z,100188.70
2022-09-20T05:58:16.291Z,100189.43
2022-09-20T06:01:12.812Z,100191.73
2022-09-20T06:04:12.779Z,100191.16
2022-09-20T06:07:13.425Z,100193.85
2022-09-20T06:10:31.106Z,100201.56
2022-09-20T06:13:44.353Z,100201.83
2022-09-20T06:16:28.267Z,100201.70
2022-09-20T06:19:28.871Z,100206.09
2022-09-20T06:22:07.581Z,100207.73
2022-09-20T06:25:02.679Z,100212.09
2022-09-20T06:27:55.949Z,100216.16
2022-09-20T06:30:47.616Z,100217.90
2022-09-20T06:33:44.075Z,100215.48
2022-09-20T06:36:53.336Z,100219.40
2022-09-20T06:39:52.714Z,100221.67
2022-09-20T06:42:43.935Z,100219.33
2022-09-20T06:45:17.592Z,100219.65
2022-09-20T06:47:48.416Z,100222.30
2022-09-20T06:50:27.656Z,100223.95
2022-09-20T06:53:05.031Z,100227.92
2022-09-20T06:55:40.550Z,100229.08
2022-09-20T06:58:29.757Z,100228.56
2022-09-20T07:01:02.297Z,100226.02
2022-09-20T07:03:42.187Z,100227.59
2022-09-20T07:06:19.420Z,100236.23
2022-09-20T07:08:59.524Z,100243.65
2022-09-20T07:11:48.465Z,100249.44
2022-09-20T07:14:28.096Z,100252.14
2022-09-20T07:16:56.611Z,100254.09
2022-09-20T07:19:28.229Z,100256.54
2022-09-20T07:22:09.080Z,100257.89
2022-09-20T07:25:01.938Z,100258.42
2022-09-20T07:27:51.097Z,100268.23
2022-09-20T07:30:24.246Z,100272.77
2022-09-20T07:32:53.244Z,100272.39
2022-09-20T07:35:32.476Z,100272.52
2022-09-20T07:38:12.200Z,100279.27
2022-09-20T07:40:55.709Z,100280.90
2022-09-20T07:43:45.078Z,100282.00
2022-09-20T07:46:35.620Z,100282.27
2022-09-20T07:49:13.213Z,100287.33
2022-09-20T07:52:04.646Z,100290.69
2022-09-20T07:54:53.189Z,100293.88
2022-09-20T07:57:42.238Z,100295.36
2022-09-20T08:00:23.925Z,100300.48
2022-09-20T08:03:12.888Z,100302.25
2022-09-20T08:06:01.669Z,100301.80
2022-09-20T08:08:51.357Z,100305.02
2022-09-20T08:11:42.216Z,100309.53
2022-09-20T08:14:31.128Z,100307.55
2022-09-20T08:17:20.235Z,100307.63
2022-09-20T08:20:10.418Z,100308.60
2022-09-20T08:23:12.647Z,100311.11
2022-09-20T08:26:02.436Z,100310.72
2022-09-20T08:28:45.115Z,100312.27
2022-09-20T08:31:26.527Z,100315.68
2022-09-20T08:34:10.983Z,100312.64
2022-09-20T08:37:02.200Z,100315.35
2022-09-20T08:42:44.849Z,100319.64
2022-09-20T08:45:41.118Z,100318.86
2022-09-20T08:48:26.624Z,100322.52
2022-09-20T08:51:22.595Z,100316.74
2022-09-20T08:54:15.684Z,100316.92
2022-09-20T08:56:55.384Z,100321.02
2022-09-20T08:59:35.007Z,100322.20
2022-09-20T09:02:17.036Z,100323.74
2022-09-20T09:04:58.757Z,100324.52
2022-09-20T09:07:47.144Z,100326.90
2022-09-20T09:10:45.407Z,100331.70
2022-09-20T09:13:43.706Z,100334.29
2022-09-20T09:16:30.211Z,100336.11
2022-09-20T09:19:33.521Z,100336.38
2022-09-20T09:22:28.674Z,100338.81
2022-09-20T09:25:21.817Z,100341.98
2022-09-20T09:27:53.029Z,100339.61
2022-09-20T09:30:43.729Z,100342.59
2022-09-20T09:33:34.336Z,100343.33
2022-09-20T09:36:25.660Z,100340.83
2022-09-20T09:39:16.574Z,100338.02
2022-09-20T09:42:23.193Z,100338.45
2022-09-20T09:45:26.290Z,100338.73
2022-09-20T09:48:23.191Z,100340.63
2022-09-20T09:51:14.793Z,100340.40
2022-09-20T09:54:05.306Z,100340.55
2022-09-20T09:57:07.947Z,100338.62
2022-09-20T09:59:54.395Z,100342.67
2022-09-20T10:02:56.514Z,100343.23
2022-09-20T10:05:59.566Z,100344.41
2022-09-20T10:09:01.675Z,100342.45
2022-09-20T10:11:43.974Z,100347.36
2022-09-20T10:14:25.774Z,100345.66
2022-09-20T10:17:33.678Z,100343.41
2022-09-20T10:20:37.763Z,100350.86
2022-09-20T10:23:51.416Z,100349.83
2022-09-20T10:26:35.676Z,100350.90
2022-09-20T10:29:35.666Z,100355.77
2022-09-20T10:32:27.853Z,100355.67
2022-09-20T10:35:20.080Z,100356.31
2022-09-20T10:38:16.061Z,100360.89
2022-09-20T10:41:21.760Z,100358.61
2022-09-20T10:44:22.787Z,100357.59
2022-09-20T10:47:17.530Z,100359.62
2022-09-20T10:50:00.342Z,100356.60
2022-09-20T10:53:03.778Z,100355.80
2022-09-20T10:56:03.023Z,100354.16
2022-09-20T10:59:02.123Z,100352.17
2022-09-20T11:01:47.013Z,100348.33
2022-09-20T11:04:53.521Z,100349.36
2022-09-20T11:07:49.970Z,100351.92
2022-09-20T11:10:45.959Z,100348.56
2022-09-20T11:13:33.778Z,100348.48
2022-09-20T11:16:17.058Z,100348.73
2022-09-20T11:18:55.239Z,100345.92
2022-09-20T11:21:38.341Z,100344.94
2022-09-20T11:24:32.436Z,100345.74
2022-09-20T11:27:17.990Z,100344.19
2022-09-20T11:29:57.641Z,100341.70
2022-09-20T11:32:53.117Z,100344.45
2022-09-20T11:35:37.278Z,100348.60
2022-09-20T11:38:22.668Z,100344.77
2022-09-20T11:41:06.158Z,100346.08
2022-09-20T11:43:38.255Z,100351.04
2022-09-20T11:46:31.002Z,100349.34
2022-09-20T11:49:09.450Z,100346.92
2022-09-20T11:52:16.735Z,100348.67
2022-09-20T11:55:41.239Z,100349.81
2022-09-20T11:58:31.112Z,100347.23
2022-09-20T12:01:15.746Z,100346.55
2022-09-20T12:04:00.259Z,100345.27
2022-09-20T12:24:29.484Z,100342.73
2022-09-20T12:27:42.369Z,100342.36
2022-09-20T12:30:33.469Z,100344.46
2022-09-20T12:33:22.048Z,100340.30
2022-09-20T12:36:18.212Z,100341.43
2022-09-20T12:39:23.306Z,100338.70
2022-09-20T12:42:28.747Z,100331.95
2022-09-20T12:45:18.666Z,100333.73
2022-09-20T12:48:19.435Z,100327.88
2022-09-20T12:51:42.784Z,100328.13
2022-09-20T12:54:33.877Z,100327.52
2022-09-20T12:57:31.854Z,100325.83
2022-09-20T13:00:35.771Z,100327.02
2022-09-20T13:03:31.193Z,100325.16
2022-09-20T13:06:25.012Z,100327.71
2022-09-20T13:09:15.553Z,100329.86
2022-09-20T13:12:02.488Z,100323.42
2022-09-20T13:14:45.613Z,100325.70
2022-09-20T13:17:30.476Z,100330.66
2022-09-20T13:20:00.382Z,100331.75
2022-09-20T13:22:57.097Z,100330.70
2022-09-20T13:25:49.999Z,100333.58
2022-09-20T13:28:30.016Z,100334.11
2022-09-20T13:31:30.849Z,100334.08
2022-09-20T13:34:23.821Z,100336.52
2022-09-20T13:37:03.689Z,100336.27
2022-09-20T13:39:36.830Z,100342.22
2022-09-20T13:42:29.191Z,100339.41
2022-09-20T13:45:14.395Z,100342.71
2022-09-20T13:47:57.517Z,100344.38
2022-09-20T13:50:40.969Z,100346.82
2022-09-20T13:53:46.318Z,100343.38
2022-09-20T13:56:21.348Z,100340.50
2022-09-20T13:59:05.352Z,100340.31
2022-09-20T14:01:43.858Z,100335.77
2022-09-20T14:04:27.535Z,100339.55
2022-09-20T14:07:03.103Z,100336.97
2022-09-20T14:09:42.297Z,100337.21
2022-09-20T14:12:33.503Z,100338.27
2022-09-20T14:15:16.584Z,100340.54
2022-09-20T14:17:57.141Z,100342.44
2022-09-20T14:20:37.386Z,100338.25
2022-09-20T14:23:06.286Z,100337.44
2022-09-20T14:26:22.229Z,100332.36
2022-09-20T14:29:30.622Z,100336.20
2022-09-20T14:32:24.984Z,100341.46
2022-09-20T14:35:04.444Z,100340.08
2022-09-20T14:37:56.477Z,100344.17
2022-09-20T14:40:30.817Z,100347.03
2022-09-20T14:43:25.188Z,100350.29
2022-09-20T14:46:17.201Z,100351.09
2022-09-20T14:49:33.304Z,100351.33
2022-09-20T14:52:38.901Z,100354.95
2022-09-20T14:55:27.899Z,100350.82
2022-09-20T14:58:17.697Z,100355.59
2022-09-20T15:01:22.996Z,100360.00
2022-09-20T15:04:09.093Z,100357.92
2022-09-20T15:07:02.247Z,100363.64
2022-09-20T15:09:50.855Z,100364.73
2022-09-20T15:12:39.876Z,100370.30
2022-09-20T15:15:19.713Z,100370.95
2022-09-20T15:17:58.996Z,100375.84
2022-09-20T15:20:31.043Z,100379.48
2022-09-20T15:23:04.004Z,100384.46
2022-09-20T15:25:33.202Z,100387.13
2022-09-20T15:28:07.289Z,100399.33
2022-09-20T15:30:36.003Z,100405.96
2022-09-20T15:33:16.529Z,100413.26
2022-09-20T15:35:49.232Z,100411.53
2022-09-20T15:38:19.189Z,100408.42
2022-09-20T15:40:50.345Z,100405.82
2022-09-20T15:43:31.226Z,100404.27
2022-09-20T15:46:16.299Z,100404.57
2022-09-20T15:48:44.902Z,100408.09
2022-09-20T15:51:15.145Z,100406.86
2022-09-20T15:53:45.513Z,100408.92
2022-09-20T15:56:20.630Z,100412.45
2022-09-20T15:58:51.083Z,100412.09
2022-09-20T16:01:36.422Z,100420.32
2022-09-20T16:04:26.739Z,100429.27
2022-09-20T16:07:17.240Z,100427.83
2022-09-20T16:09:58.708Z,100433.83
2022-09-20T16:12:27.634Z,100431.70
2022-09-20T16:15:07.516Z,100432.34
2022-09-20T16:18:12.836Z,100434.30
2022-09-20T16:21:10.300Z,100437.25
2022-09-20T16:23:40.030Z,100438.63
2022-09-20T16:26:15.161Z,100437.51
2022-09-20T16:29:07.128Z,100439.36
2022-09-20T16:31:48.494Z,100442.66
2022-09-20T16:34:19.332Z,100444.14
2022-09-20T16:36:50.659Z,100441.80
2022-09-20T16:39:27.263Z,100442.95
2022-09-20T16:42:00.605Z,100449.28
2022-09-20T16:44:35.170Z,100457.17
2022-09-20T16:47:07.397Z,100457.71
2022-09-20T16:49:44.800Z,100456.48
2022-09-20T16:52:26.111Z,100453.64
2022-09-20T16:54:57.345Z,100453.42
2022-09-20T16:57:26.507Z,100455.59
2022-09-20T16:59:55.699Z,100452.98
2022-09-20T17:02:24.533Z,100458.52
2022-09-20T17:04:53.673Z,100465.54
2022-09-20T17:07:43.377Z,100469.16
2022-09-20T17:10:32.850Z,100466.21
2022-09-20T17:13:22.009Z,100471.91
2022-09-20T17:16:03.233Z,100473.89
2022-09-20T17:18:56.836Z,100480.23
2022-09-20T17:21:48.786Z,100484.95
2022-09-20T17:24:19.237Z,100488.43
2022-09-20T17:26:53.561Z,100493.55
2022-09-20T17:29:25.404Z,100498.34
2022-09-20T17:31:59.027Z,100503.33
2022-09-20T17:34:48.892Z,100508.34
2022-09-20T17:37:37.734Z,100506.54
2022-09-20T17:40:09.944Z,100507.03
2022-09-20T17:42:38.836Z,100507.16
2022-09-20T17:45:11.576Z,100510.80
2022-09-20T17:48:00.422Z,100511.20
2022-09-20T17:50:31.428Z,100512.49
2022-09-20T17:53:03.460Z,100516.48
2022-09-20T17:55:34.810Z,100518.02
2022-09-20T17:58:08.885Z,100515.42
2022-09-20T18:00:40.202Z,100516.55
2022-09-20T18:03:09.066Z,100519.76
2022-09-20T18:05:58.664Z,100519.85
2022-09-20T18:08:27.499Z,100524.50
2022-09-20T18:11:18.366Z,100523.36
2022-09-20T18:14:00.971Z,100526.66
2022-09-20T18:16:52.852Z,100529.33
2022-09-20T18:19:33.228Z,100534.95
2022-09-20T18:22:22.772Z,100535.23
2022-09-20T18:24:51.589Z,100536.81
2022-09-20T18:27:20.184Z,100538.79
2022-09-20T18:30:11.497Z,100538.85
2022-09-20T18:32:52.336Z,100542.36
2022-09-20T18:35:22.194Z,100540.52
2022-09-20T18:37:52.352Z,100545.86
2022-09-20T18:40:23.731Z,100548.11
2022-09-20T18:43:13.341Z,100555.02
2022-09-20T18:45:53.911Z,100558.52
2022-09-20T18:48:43.923Z,100561.08
2022-09-20T18:51:39.209Z,100562.06
2022-09-20T18:54:19.896Z,100563.02
2022-09-20T18:57:10.858Z,100568.39
2022-09-20T19:00:04.031Z,100567.68
2022-09-20T19:03:09.999Z,100567.13
2022-09-20T19:06:07.661Z,100570.35
2022-09-20T19:09:01.025Z,100572.27
2022-09-20T19:11:38.596Z,100575.65
2022-09-20T19:14:21.922Z,100575.75
2022-09-20T19:17:02.026Z,100579.27
2022-09-20T19:19:59.951Z,100581.01
2022-09-20T19:23:00.301Z,100587.61
2022-09-20T19:25:40.124Z,100592.38
2022-09-20T19:28:24.477Z,100595.89
2022-09-20T19:30:57.191Z,100595.98
2022-09-20T19:33:27.589Z,100596.01
2022-09-20T19:35:59.015Z,100595.14
2022-09-20T19:38:38.177Z,100600.08
2022-09-20T19:41:26.857Z,100598.64
2022-09-20T19:44:17.769Z,100600.02
2022-09-20T19:47:03.187Z,100598.97
2022-09-20T19:49:41.823Z,100596.41
2022-09-20T19:52:12.470Z,100598.16
2022-09-20T19:54:46.595Z,100594.26
2022-09-20T19:57:41.985Z,100601.28
2022-09-20T20:00:31.664Z,100600.44
2022-09-20T20:03:25.542Z,100603.48
2022-09-20T20:06:07.839Z,100607.27
2022-09-20T20:08:42.618Z,100605.56
2022-09-20T20:11:35.387Z,100604.02
2022-09-20T20:14:35.144Z,100608.14
2022-09-20T20:17:27.518Z,100604.56
2022-09-20T20:20:29.991Z,100608.81
2022-09-20T20:23:45.108Z,100609.17
2022-09-20T20:26:26.592Z,100613.11
2022-09-20T20:29:09.666Z,100610.88
2022-09-20T20:31:48.948Z,100612.91
2022-09-20T20:34:37.585Z,100613.30
2022-09-20T20:37:27.828Z,100616.42
2022-09-20T20:39:59.134Z,100620.55
2022-09-20T20:42:31.249Z,100624.81
2022-09-20T20:45:11.235Z,100624.39
2022-09-20T20:48:00.927Z,100622.32
2022-09-20T20:51:00.296Z,100625.59
2022-09-20T20:53:50.934Z,100623.81
2022-09-20T20:56:30.866Z,100625.59
2022-09-20T20:59:21.075Z,100623.95
2022-09-20T21:01:52.280Z,100629.49
2022-09-20T21:04:42.109Z,100629.25
2022-09-20T21:07:32.606Z,100625.92
2022-09-20T21:10:25.508Z,100630.95
2022-09-20T21:12:59.970Z,100628.00
2022-09-20T21:15:39.282Z,100630.63
2022-09-20T21:18:19.157Z,100634.85
2022-09-20T21:20:50.297Z,100636.05
2022-09-20T21:23:21.331Z,100635.02
2022-09-20T21:26:06.751Z,100635.75
2022-09-20T21:28:52.213Z,100635.17
2022-09-20T21:31:35.832Z,100630.50
2022-09-20T21:34:24.883Z,100632.97
2022-09-20T21:37:13.735Z,100632.95
2022-09-20T21:39:46.100Z,100640.33
2022-09-20T21:42:27.818Z,100633.42
2022-09-20T21:44:56.639Z,100633.94
2022-09-20T21:47:35.300Z,100631.62
2022-09-20T21:50:16.819Z,100635.61
2022-09-20T21:53:07.631Z,100636.73
2022-09-20T21:55:38.562Z,100642.97
2022-09-20T21:58:09.222Z,100642.09
2022-09-20T22:01:03.550Z,100647.55
2022-09-20T22:03:45.662Z,100646.69
2022-09-20T22:06:39.353Z,100646.73
2022-09-20T22:09:28.393Z,100648.35
2022-09-20T22:11:56.967Z,100646.73
2022-09-20T22:14:46.066Z,100646.84
2022-09-20T22:17:34.458Z,100652.73
2022-09-20T22:20:11.033Z,100653.05
2022-09-20T22:22:59.911Z,100651.73
2022-09-20T22:25:59.764Z,100655.77
2022-09-20T22:28:49.774Z,100659.29
2022-09-20T22:31:20.976Z,100659.25
2022-09-20T22:34:02.552Z,100659.26
2022-09-20T22:36:42.219Z,100659.63
2022-09-20T22:39:14.887Z,100660.44
2022-09-20T22:41:57.631Z,100660.83
2022-09-20T22:44:26.220Z,100658.77
2022-09-20T22:47:15.138Z,100657.60
2022-09-20T22:49:46.419Z,100660.55
2022-09-20T22:52:35.102Z,100659.81
2022-09-20T22:55:23.896Z,100661.02
2022-09-20T22:57:56.020Z,100660.16
2022-09-20T23:00:44.239Z,100659.21
2022-09-20T23:03:33.345Z,100659.81
2022-09-20T23:06:02.947Z,100657.36
2022-09-20T23:08:33.046Z,100658.25
2022-09-20T23:11:22.839Z,100656.46
2022-09-20T23:14:15.360Z,100657.76
2022-09-20T23:16:55.448Z,100653.90
2022-09-20T23:19:44.526Z,100656.16
2022-09-20T23:22:26.503Z,100653.48
2022-09-20T23:25:11.160Z,100654.52
2022-09-20T23:28:00.340Z,100652.83
2022-09-20T23:30:48.125Z,100653.53
2022-09-20T23:33:27.870Z,100655.20
2022-09-20T23:36:11.019Z,100658.99
2022-09-20T23:39:00.288Z,100658.36
2022-09-20T23:41:51.243Z,100661.27
2022-09-20T23:44:40.268Z,100662.66
2022-09-20T23:47:28.177Z,100661.78
2022-09-20T23:50:18.116Z,100661.77
2022-09-20T23:53:08.487Z,100663.55
2022-09-20T23:55:48.633Z,100664.30
2022-09-20T23:58:39.105Z,100666.55
